createdAt,value
2022-11-24T00:00:06.829Z,4.50
2022-11-24T00:01:06.696Z,4.10
2022-11-24T00:02:06.836Z,3.50
2022-11-24T00:03:06.948Z,4.00
2022-11-24T00:04:06.765Z,3.90
2022-11-24T00:05:06.646Z,3.60
2022-11-24T00:06:06.928Z,3.70
2022-11-24T00:07:06.702Z,3.90
2022-11-24T00:08:07.231Z,3.50
2022-11-24T00:09:06.609Z,4.00
2022-11-24T00:10:06.615Z,3.40
2022-11-24T00:11:06.585Z,4.50
2022-11-24T00:12:06.662Z,3.70
2022-11-24T00:13:06.726Z,3.70
2022-11-24T00:14:06.637Z,3.90
2022-11-24T00:15:06.542Z,4.00
2022-11-24T00:16:06.766Z,3.60
2022-11-24T00:17:06.534Z,3.80
2022-11-24T00:18:06.541Z,3.50
2022-11-24T00:19:06.495Z,3.70
2022-11-24T00:20:06.486Z,3.90
2022-11-24T00:21:06.474Z,4.30
2022-11-24T00:22:06.513Z,4.00
2022-11-24T00:23:06.467Z,3.70
2022-11-24T00:24:06.498Z,3.50
2022-11-24T00:25:06.443Z,3.80
2022-11-24T00:26:06.447Z,3.30
2022-11-24T00:27:06.407Z,3.40
2022-11-24T00:28:06.508Z,3.40
2022-11-24T00:29:06.429Z,3.30
2022-11-24T00:30:06.448Z,3.70
2022-11-24T00:31:06.475Z,3.60
2022-11-24T00:32:06.397Z,3.80
2022-11-24T00:33:06.364Z,3.60
2022-11-24T00:34:06.362Z,3.90
2022-11-24T00:35:06.330Z,4.00
2022-11-24T00:36:06.376Z,3.30
2022-11-24T00:37:06.305Z,3.60
2022-11-24T00:38:06.335Z,3.90
2022-11-24T00:39:06.292Z,3.40
2022-11-24T00:40:06.381Z,3.80
2022-11-24T00:41:06.258Z,4.20
2022-11-24T00:42:06.269Z,3.90
2022-11-24T00:43:06.240Z,3.80
2022-11-24T00:44:06.385Z,4.00
2022-11-24T00:45:13.537Z,3.60
2022-11-24T00:46:07.397Z,3.70
2022-11-24T00:47:06.285Z,3.90
2022-11-24T00:48:06.201Z,3.40
2022-11-24T00:49:06.199Z,3.60
2022-11-24T00:50:06.291Z,3.80
2022-11-24T00:51:06.163Z,4.80
2022-11-24T00:52:06.283Z,3.30
2022-11-24T00:53:06.141Z,3.70
2022-11-24T00:54:06.155Z,4.20
2022-11-24T00:55:06.130Z,3.20
2022-11-24T00:56:06.123Z,3.70
2022-11-24T00:57:06.082Z,3.00
2022-11-24T00:58:06.072Z,3.20
2022-11-24T00:59:06.082Z,3.30
2022-11-24T01:00:06.082Z,3.90
2022-11-24T01:01:06.107Z,3.40
2022-11-24T01:02:06.148Z,3.20
2022-11-24T01:03:06.029Z,3.30
2022-11-24T01:04:06.065Z,4.10
2022-11-24T01:05:06.009Z,3.30
2022-11-24T01:06:06.097Z,3.30
2022-11-24T01:07:06.066Z,3.30
2022-11-24T01:08:06.050Z,3.40
2022-11-24T01:09:05.967Z,3.60
2022-11-24T01:10:05.935Z,3.90
2022-11-24T01:11:05.935Z,3.30
2022-11-24T01:12:05.996Z,3.90
2022-11-24T01:13:05.903Z,3.70
2022-11-24T01:14:05.958Z,3.60
2022-11-24T01:15:05.884Z,3.70
2022-11-24T01:16:05.918Z,3.80
2022-11-24T01:17:05.864Z,3.40
2022-11-24T01:18:05.872Z,3.60
2022-11-24T01:19:05.846Z,3.30
2022-11-24T01:20:05.889Z,4.00
2022-11-24T01:21:09.813Z,3.60
2022-11-24T01:22:05.817Z,3.90
2022-11-24T01:23:05.800Z,3.50
2022-11-24T01:24:05.897Z,3.40
2022-11-24T01:25:05.775Z,3.90
2022-11-24T01:26:05.826Z,4.10
2022-11-24T01:27:05.755Z,3.90
2022-11-24T01:28:05.822Z,3.40
2022-11-24T01:29:05.747Z,4.10
2022-11-24T01:30:05.782Z,3.80
2022-11-24T01:31:05.750Z,4.10
2022-11-24T01:32:05.719Z,4.20
2022-11-24T01:33:05.687Z,3.70
2022-11-24T01:34:05.727Z,3.90
2022-11-24T01:35:05.826Z,4.40
2022-11-24T01:36:05.716Z,3.90
2022-11-24T01:37:05.651Z,3.80
2022-11-24T01:38:05.648Z,3.40
2022-11-24T01:39:05.729Z,3.90
2022-11-24T01:40:05.636Z,3.20
2022-11-24T01:41:05.624Z,3.90
2022-11-24T01:42:05.639Z,4.40
2022-11-24T01:43:05.577Z,3.70
2022-11-24T01:44:05.673Z,3.90
2022-11-24T01:45:05.558Z,3.40
2022-11-24T01:46:05.616Z,3.10
2022-11-24T01:47:05.537Z,3.50
2022-11-24T01:48:05.613Z,4.10
2022-11-24T01:49:05.519Z,3.60
2022-11-24T01:50:05.551Z,3.90
2022-11-24T01:51:05.508Z,4.40
2022-11-24T01:52:05.748Z,3.20
2022-11-24T01:53:05.688Z,3.70
2022-11-24T01:54:05.543Z,3.10
2022-11-24T01:55:05.442Z,3.70
2022-11-24T01:56:05.441Z,3.50
2022-11-24T01:57:05.424Z,3.40
2022-11-24T01:58:05.419Z,3.40
2022-11-24T01:59:05.419Z,3.80
2022-11-24T02:00:05.448Z,3.80
2022-11-24T02:01:05.603Z,3.50
2022-11-24T02:02:05.510Z,3.40
2022-11-24T02:03:05.611Z,3.30
2022-11-24T02:04:05.393Z,3.50
2022-11-24T02:05:05.339Z,3.30
2022-11-24T02:06:05.331Z,3.30
2022-11-24T02:07:05.310Z,3.20
2022-11-24T02:08:05.330Z,3.50
2022-11-24T02:09:05.301Z,3.70
2022-11-24T02:10:05.308Z,3.20
2022-11-24T02:11:05.271Z,4.00
2022-11-24T02:12:05.300Z,3.40
2022-11-24T02:13:05.252Z,3.00
2022-11-24T02:14:05.253Z,3.50
2022-11-24T02:15:05.238Z,3.10
2022-11-24T02:16:05.292Z,3.40
2022-11-24T02:17:05.211Z,3.30
2022-11-24T02:18:05.197Z,3.80
2022-11-24T02:19:05.190Z,3.40
2022-11-24T02:20:05.231Z,3.70
2022-11-24T02:21:05.168Z,3.80
2022-11-24T02:22:05.158Z,3.80
2022-11-24T02:23:05.151Z,3.90
2022-11-24T02:24:05.146Z,4.20
2022-11-24T02:25:05.113Z,3.50
2022-11-24T02:26:05.145Z,3.50
2022-11-24T02:27:05.101Z,3.70
2022-11-24T02:28:05.083Z,3.40
2022-11-24T02:29:05.094Z,3.50
2022-11-24T02:30:05.076Z,3.50
2022-11-24T02:31:05.088Z,3.50
2022-11-24T02:32:05.119Z,4.10
2022-11-24T02:33:05.033Z,3.20
2022-11-24T02:34:05.027Z,3.50
2022-11-24T02:35:05.026Z,3.40
2022-11-24T02:36:05.000Z,3.90
2022-11-24T02:37:04.996Z,3.40
2022-11-24T02:38:05.022Z,3.60
2022-11-24T02:39:04.994Z,3.70
2022-11-24T02:40:04.963Z,3.50
2022-11-24T02:41:04.973Z,3.90
2022-11-24T02:42:05.123Z,3.50
2022-11-24T02:43:04.915Z,3.60
2022-11-24T02:44:05.072Z,3.20
2022-11-24T02:45:04.935Z,4.30
2022-11-24T02:46:04.955Z,3.60
2022-11-24T02:47:04.880Z,3.70
2022-11-24T02:48:04.926Z,3.80
2022-11-24T02:49:04.923Z,4.10
2022-11-24T02:50:04.992Z,4.10
2022-11-24T02:51:04.834Z,3.60
2022-11-24T02:52:04.838Z,3.80
2022-11-24T02:53:04.806Z,3.60
2022-11-24T02:54:04.835Z,3.40
2022-11-24T02:55:04.795Z,3.90
2022-11-24T02:56:04.796Z,4.60
2022-11-24T02:57:04.769Z,4.20
2022-11-24T02:58:04.771Z,3.80
2022-11-24T02:59:04.753Z,4.00
2022-11-24T03:00:04.757Z,3.60
2022-11-24T03:01:04.793Z,3.70
2022-11-24T03:02:04.835Z,3.60
2022-11-24T03:03:04.760Z,4.10
2022-11-24T03:04:04.723Z,3.40
2022-11-24T03:05:04.697Z,3.90
2022-11-24T03:06:04.684Z,3.60
2022-11-24T03:07:04.658Z,3.80
2022-11-24T03:08:04.747Z,3.80
2022-11-24T03:09:04.638Z,3.40
2022-11-24T03:10:04.639Z,4.10
2022-11-24T03:11:04.619Z,3.60
2022-11-24T03:12:04.641Z,3.90
2022-11-24T03:13:04.590Z,4.20
2022-11-24T03:14:04.650Z,3.90
2022-11-24T03:15:04.580Z,3.60
2022-11-24T03:16:04.673Z,3.60
2022-11-24T03:17:04.550Z,4.30
2022-11-24T03:18:04.563Z,3.90
2022-11-24T03:19:04.528Z,3.50
2022-11-24T03:20:05.410Z,3.70
2022-11-24T03:21:04.541Z,3.70
2022-11-24T03:22:04.541Z,4.10
2022-11-24T03:23:04.490Z,4.10
2022-11-24T03:24:04.548Z,3.90
2022-11-24T03:25:04.482Z,3.90
2022-11-24T03:26:04.462Z,3.70
2022-11-24T03:27:04.442Z,3.60
2022-11-24T03:28:04.581Z,3.90
2022-11-24T03:29:04.420Z,3.70
2022-11-24T03:30:04.492Z,4.20
2022-11-24T03:31:04.428Z,3.90
2022-11-24T03:32:04.481Z,4.10
2022-11-24T03:33:04.384Z,4.00
2022-11-24T03:34:05.313Z,4.00
2022-11-24T03:35:04.365Z,3.90
2022-11-24T03:36:04.452Z,3.40
2022-11-24T03:37:04.344Z,4.00
2022-11-24T03:38:04.773Z,4.30
2022-11-24T03:39:04.312Z,3.80
2022-11-24T03:40:04.375Z,4.00
2022-11-24T03:41:04.293Z,3.80
2022-11-24T03:42:04.301Z,3.90
2022-11-24T03:43:04.264Z,3.60
2022-11-24T03:44:04.292Z,3.60
2022-11-24T03:45:29.850Z,3.90
2022-11-24T03:46:05.253Z,3.90
2022-11-24T03:47:04.234Z,3.90
2022-11-24T03:48:04.313Z,3.60
2022-11-24T03:49:04.195Z,3.80
2022-11-24T03:50:04.206Z,3.90
2022-11-24T03:51:04.184Z,3.70
2022-11-24T03:52:07.962Z,4.10
2022-11-24T03:53:04.158Z,3.50
2022-11-24T03:54:04.156Z,4.30
2022-11-24T03:55:04.139Z,4.50
2022-11-24T03:56:04.153Z,4.30
2022-11-24T03:57:04.116Z,3.90
2022-11-24T03:58:04.159Z,4.30
2022-11-24T03:59:04.093Z,3.90
2022-11-24T04:00:04.122Z,4.50
2022-11-24T04:01:04.069Z,3.90
2022-11-24T04:02:04.131Z,4.60
2022-11-24T04:03:04.076Z,4.60
2022-11-24T04:04:04.052Z,3.70
2022-11-24T04:05:04.048Z,4.10
2022-11-24T04:06:04.026Z,4.00
2022-11-24T04:07:04.006Z,4.40
2022-11-24T04:08:04.057Z,4.60
2022-11-24T04:09:03.986Z,3.70
2022-11-24T04:10:04.013Z,3.90
2022-11-24T04:11:03.967Z,3.90
2022-11-24T04:12:03.987Z,4.00
2022-11-24T04:13:03.947Z,3.70
2022-11-24T04:14:06.686Z,3.60
2022-11-24T04:15:05.026Z,4.00
2022-11-24T04:16:03.942Z,4.70
2022-11-24T04:17:03.906Z,4.00
2022-11-24T04:18:03.932Z,3.70
2022-11-24T04:19:03.880Z,4.70
2022-11-24T04:20:03.920Z,4.00
2022-11-24T04:21:03.871Z,4.10
2022-11-24T04:22:04.015Z,4.30
2022-11-24T04:23:03.839Z,4.10
2022-11-24T04:24:03.849Z,3.00
2022-11-24T04:25:03.811Z,4.00
2022-11-24T04:26:03.893Z,4.20
2022-11-24T04:27:03.791Z,4.20
2022-11-24T04:28:03.780Z,4.20
2022-11-24T04:29:03.773Z,4.00
2022-11-24T04:30:03.770Z,4.10
2022-11-24T04:31:03.807Z,4.80
2022-11-24T04:32:03.782Z,3.90
2022-11-24T04:33:03.732Z,4.00
2022-11-24T04:34:03.721Z,3.80
2022-11-24T04:35:03.702Z,4.00
2022-11-24T04:36:03.698Z,4.10
2022-11-24T04:37:03.693Z,4.00
2022-11-24T04:38:03.715Z,3.90
2022-11-24T04:39:24.376Z,4.10
2022-11-24T04:40:04.683Z,4.70
2022-11-24T04:41:03.653Z,4.20
2022-11-24T04:42:03.696Z,4.20
2022-11-24T04:43:03.621Z,4.80
2022-11-24T04:44:03.728Z,4.00
2022-11-24T04:45:03.599Z,4.50
2022-11-24T04:46:03.795Z,3.80
2022-11-24T04:47:03.581Z,4.40
2022-11-24T04:48:03.564Z,4.40
2022-11-24T04:49:03.552Z,4.30
2022-11-24T04:50:03.537Z,4.20
2022-11-24T04:51:03.545Z,4.30
2022-11-24T04:52:03.923Z,4.20
2022-11-24T04:53:03.513Z,5.90
2022-11-24T04:54:03.714Z,4.40
2022-11-24T04:55:03.483Z,4.10
2022-11-24T04:56:03.514Z,4.10
2022-11-24T04:57:03.467Z,4.00
2022-11-24T04:58:03.488Z,4.10
2022-11-24T04:59:07.952Z,4.20
2022-11-24T05:00:04.435Z,5.20
2022-11-24T05:01:03.425Z,4.10
2022-11-24T05:02:03.720Z,4.40
2022-11-24T05:03:03.406Z,4.00
2022-11-24T05:04:03.415Z,4.20
2022-11-24T05:05:03.395Z,4.20
2022-11-24T05:06:03.399Z,4.40
2022-11-24T05:07:03.364Z,4.30
2022-11-24T05:08:03.557Z,4.40
2022-11-24T05:09:03.334Z,4.30
2022-11-24T05:10:03.329Z,4.50
2022-11-24T05:11:03.356Z,4.20
2022-11-24T05:12:03.355Z,4.60
2022-11-24T05:13:03.288Z,4.50
2022-11-24T05:14:03.291Z,4.70
2022-11-24T05:15:03.282Z,4.00
2022-11-24T05:16:03.300Z,5.50
2022-11-24T05:17:03.265Z,4.00
2022-11-24T05:18:03.403Z,4.30
2022-11-24T05:19:03.226Z,4.50
2022-11-24T05:20:03.207Z,4.70
2022-11-24T05:21:03.221Z,4.60
2022-11-24T05:22:03.185Z,4.00
2022-11-24T05:23:03.186Z,4.90
2022-11-24T05:24:03.200Z,4.10
2022-11-24T05:25:03.159Z,4.60
2022-11-24T05:26:03.158Z,4.20
2022-11-24T05:27:03.137Z,4.60
2022-11-24T05:28:03.160Z,4.80
2022-11-24T05:29:03.117Z,4.40
2022-11-24T05:30:03.110Z,5.10
2022-11-24T05:31:03.154Z,4.50
2022-11-24T05:32:03.441Z,4.60
2022-11-24T05:33:03.079Z,4.20
2022-11-24T05:34:03.111Z,3.90
2022-11-24T05:35:03.052Z,4.40
2022-11-24T05:36:03.115Z,4.50
2022-11-24T05:37:03.041Z,4.70
2022-11-24T05:38:03.024Z,4.60
2022-11-24T05:39:03.009Z,4.30
2022-11-24T05:40:03.006Z,4.90
2022-11-24T05:41:03.001Z,4.90
2022-11-24T05:42:02.987Z,5.40
2022-11-24T05:43:02.970Z,5.80
2022-11-24T05:44:02.952Z,5.10
2022-11-24T05:45:02.941Z,4.70
2022-11-24T05:46:02.964Z,4.40
2022-11-24T05:47:02.959Z,4.80
2022-11-24T05:48:02.901Z,5.30
2022-11-24T05:49:02.894Z,5.20
2022-11-24T05:50:02.888Z,3.90
2022-11-24T05:51:07.870Z,4.20
2022-11-24T05:52:03.882Z,4.40
2022-11-24T05:53:02.860Z,4.80
2022-11-24T05:54:02.890Z,3.80
2022-11-24T05:55:02.831Z,3.80
2022-11-24T05:56:02.886Z,4.10
2022-11-24T05:57:02.804Z,4.20
2022-11-24T05:58:02.791Z,3.70
2022-11-24T05:59:08.219Z,4.50
2022-11-24T06:00:03.796Z,4.50
2022-11-24T06:01:02.774Z,4.80
2022-11-24T06:02:03.024Z,4.30
2022-11-24T06:03:02.849Z,4.50
2022-11-24T06:04:02.731Z,4.00
2022-11-24T06:05:02.725Z,4.70
2022-11-24T06:06:02.843Z,5.00
2022-11-24T06:07:02.705Z,4.90
2022-11-24T06:08:02.715Z,4.50
2022-11-24T06:09:02.682Z,5.00
2022-11-24T06:10:03.161Z,4.50
2022-11-24T06:11:02.664Z,4.60
2022-11-24T06:12:02.661Z,4.50
2022-11-24T06:13:02.694Z,4.70
2022-11-24T06:14:05.773Z,4.90
2022-11-24T06:15:03.616Z,4.90
2022-11-24T06:16:02.767Z,4.70
2022-11-24T06:17:02.586Z,5.20
2022-11-24T06:18:02.614Z,5.10
2022-11-24T06:19:02.574Z,4.30
2022-11-24T06:20:02.612Z,4.10
2022-11-24T06:21:10.663Z,4.70
2022-11-24T06:22:03.538Z,4.40
2022-11-24T06:23:02.546Z,4.30
2022-11-24T06:24:02.530Z,4.60
2022-11-24T06:25:02.496Z,4.90
2022-11-24T06:26:02.544Z,4.00
2022-11-24T06:27:02.477Z,4.70
2022-11-24T06:28:02.474Z,4.00
2022-11-24T06:29:02.486Z,4.60
2022-11-24T06:30:02.459Z,4.40
2022-11-24T06:31:02.437Z,4.20
2022-11-24T06:32:02.591Z,4.60
2022-11-24T06:33:02.418Z,5.00
2022-11-24T06:34:02.468Z,4.00
2022-11-24T06:35:02.389Z,4.60
2022-11-24T06:36:03.435Z,4.30
2022-11-24T06:37:02.377Z,3.90
2022-11-24T06:38:02.357Z,4.00
2022-11-24T06:39:02.350Z,3.80
2022-11-24T06:40:02.427Z,3.60
2022-11-24T06:41:02.350Z,4.10
2022-11-24T06:42:02.445Z,3.80
2022-11-24T06:43:02.300Z,3.80
2022-11-24T06:44:02.376Z,3.70
2022-11-24T06:45:07.432Z,3.90
2022-11-24T06:46:03.360Z,4.00
2022-11-24T06:47:02.259Z,3.90
2022-11-24T06:48:02.289Z,3.90
2022-11-24T06:49:02.243Z,3.50
2022-11-24T06:50:02.241Z,4.00
2022-11-24T06:51:02.219Z,4.10
2022-11-24T06:52:02.199Z,3.70
2022-11-24T06:53:02.191Z,3.70
2022-11-24T06:54:02.240Z,4.20
2022-11-24T06:55:02.161Z,3.90
2022-11-24T06:56:02.276Z,3.20
2022-11-24T06:57:02.158Z,3.40
2022-11-24T06:58:02.158Z,3.50
2022-11-24T06:59:02.149Z,3.00
2022-11-24T07:00:02.157Z,3.30
2022-11-24T07:01:02.237Z,3.10
2022-11-24T07:02:02.112Z,3.10
2022-11-24T07:03:02.102Z,3.00
2022-11-24T07:04:02.100Z,3.30
2022-11-24T07:05:02.056Z,2.70
2022-11-24T07:06:02.055Z,2.70
2022-11-24T07:07:02.065Z,2.90
2022-11-24T07:08:02.030Z,2.70
2022-11-24T07:09:02.030Z,2.60
2022-11-24T07:10:02.063Z,2.90
2022-11-24T07:11:01.994Z,2.20
2022-11-24T07:12:02.053Z,2.40
2022-11-24T07:13:01.974Z,2.50
2022-11-24T07:14:01.961Z,2.50
2022-11-24T07:15:01.953Z,3.00
2022-11-24T07:16:02.011Z,2.50
2022-11-24T07:17:02.015Z,2.60
2022-11-24T07:18:01.933Z,2.80
2022-11-24T07:19:01.905Z,2.50
2022-11-24T07:20:01.894Z,1.90
2022-11-24T07:21:01.885Z,2.30
2022-11-24T07:22:01.922Z,2.40
2022-11-24T07:23:01.864Z,2.40
2022-11-24T07:24:01.857Z,2.50
2022-11-24T07:25:01.845Z,2.40
2022-11-24T07:26:06.548Z,2.40
2022-11-24T07:27:02.833Z,2.00
2022-11-24T07:28:01.868Z,2.00
2022-11-24T07:29:01.818Z,2.40
2022-11-24T07:30:01.802Z,2.90
2022-11-24T07:31:01.807Z,2.80
2022-11-24T07:32:05.441Z,2.20
2022-11-24T07:33:01.759Z,2.00
2022-11-24T07:34:01.744Z,2.10
2022-11-24T07:35:01.805Z,1.90
2022-11-24T07:36:01.726Z,2.00
2022-11-24T07:37:01.916Z,2.70
2022-11-24T07:38:01.698Z,2.00
2022-11-24T07:39:01.694Z,2.40
2022-11-24T07:40:01.668Z,2.00
2022-11-24T07:41:01.667Z,2.20
2022-11-24T07:42:01.657Z,2.10
2022-11-24T07:43:01.679Z,2.00
2022-11-24T07:44:01.668Z,2.20
2022-11-24T07:45:01.699Z,2.00
2022-11-24T07:46:01.745Z,2.00
2022-11-24T07:47:01.616Z,2.10
2022-11-24T07:48:01.597Z,1.70
2022-11-24T07:49:01.579Z,2.10
2022-11-24T07:50:01.568Z,2.10
2022-11-24T07:51:01.559Z,3.00
2022-11-24T07:52:01.549Z,3.10
2022-11-24T07:53:01.538Z,3.30
2022-11-24T07:54:01.552Z,4.50
2022-11-24T07:55:01.514Z,3.90
2022-11-24T07:56:01.499Z,3.60
2022-11-24T07:57:01.509Z,4.10
2022-11-24T07:59:47.241Z,3.50
2022-11-24T08:00:47.231Z,3.50
2022-11-24T08:01:47.276Z,3.60
2022-11-24T08:02:47.912Z,2.90
2022-11-24T08:03:47.249Z,3.10
2022-11-24T08:04:47.185Z,3.20
2022-11-24T08:06:16.119Z,4.10
2022-11-24T08:06:48.173Z,3.80
2022-11-24T08:07:47.241Z,3.50
2022-11-24T08:08:47.148Z,3.70
2022-11-24T08:09:47.126Z,3.40
2022-11-24T08:10:47.113Z,3.90
2022-11-24T08:11:47.117Z,3.40
2022-11-24T08:12:47.095Z,3.50
2022-11-24T08:13:47.093Z,2.90
2022-11-24T08:14:47.092Z,3.20
2022-11-24T08:15:47.074Z,2.50
2022-11-24T08:16:47.137Z,3.10
2022-11-24T08:17:47.043Z,2.60
2022-11-24T08:18:47.033Z,2.70
2022-11-24T08:19:47.024Z,2.30
2022-11-24T08:20:47.013Z,2.30
2022-11-24T08:21:47.004Z,2.40
2022-11-24T08:22:46.996Z,2.60
2022-11-24T08:23:46.998Z,2.20
2022-11-24T08:24:46.965Z,2.10
2022-11-24T08:25:46.963Z,2.50
2022-11-24T08:26:46.982Z,2.30
2022-11-24T08:27:46.936Z,2.30
2022-11-24T08:28:46.934Z,1.60
2022-11-24T08:29:46.906Z,1.90
2022-11-24T08:30:46.895Z,2.30
2022-11-24T08:31:46.986Z,2.00
2022-11-24T08:32:46.906Z,2.10
2022-11-24T08:33:46.867Z,2.20
2022-11-24T08:34:46.855Z,2.50
2022-11-24T08:35:46.846Z,2.40
2022-11-24T08:36:46.837Z,2.40
2022-11-24T08:37:46.841Z,2.20
2022-11-24T08:38:46.836Z,2.20
2022-11-24T08:39:46.806Z,2.20
2022-11-24T08:40:46.815Z,2.40
2022-11-24T08:41:46.809Z,2.50
2022-11-24T08:42:46.778Z,1.80
2022-11-24T08:43:46.766Z,1.60
2022-11-24T08:44:46.749Z,1.70
2022-11-24T08:45:46.803Z,2.20
2022-11-24T08:46:46.729Z,2.10
2022-11-24T08:47:46.740Z,1.70
2022-11-24T08:48:46.710Z,1.80
2022-11-24T08:49:46.791Z,1.80
2022-11-24T08:50:46.689Z,2.00
2022-11-24T08:51:46.760Z,2.40
2022-11-24T08:52:46.689Z,2.10
2022-11-24T08:53:46.649Z,2.00
2022-11-24T08:54:46.648Z,2.20
2022-11-24T08:55:46.630Z,2.00
2022-11-24T08:56:46.620Z,2.10
2022-11-24T08:57:46.629Z,1.70
2022-11-24T08:58:46.634Z,1.90
2022-11-24T08:59:46.584Z,2.10
2022-11-24T09:00:46.572Z,1.70
2022-11-24T09:01:46.593Z,1.90
2022-11-24T09:02:46.586Z,2.50
2022-11-24T09:03:50.410Z,2.60
2022-11-24T09:04:46.603Z,2.80
2022-11-24T09:05:53.681Z,2.50
2022-11-24T09:06:47.503Z,1.90
2022-11-24T09:07:46.582Z,1.90
2022-11-24T09:08:46.507Z,2.60
2022-11-24T09:09:46.472Z,2.10
2022-11-24T09:10:46.480Z,1.70
2022-11-24T09:11:46.475Z,2.00
2022-11-24T09:12:46.479Z,2.30
2022-11-24T09:13:46.493Z,2.10
2022-11-24T09:14:46.426Z,2.10
2022-11-24T09:15:46.405Z,1.70
2022-11-24T09:16:46.433Z,1.90
2022-11-24T09:17:46.403Z,1.80
2022-11-24T09:18:46.374Z,2.40
2022-11-24T09:19:46.366Z,2.30
2022-11-24T09:20:46.355Z,1.90
2022-11-24T09:21:46.347Z,1.90
2022-11-24T09:22:46.336Z,2.10
2022-11-24T09:23:46.326Z,1.90
2022-11-24T09:24:46.305Z,2.30
2022-11-24T09:25:46.306Z,3.10
2022-11-24T09:26:47.939Z,2.30
2022-11-24T09:27:46.286Z,2.10
2022-11-24T09:28:46.257Z,2.30
2022-11-24T09:29:46.257Z,2.20
2022-11-24T09:30:46.370Z,2.00
2022-11-24T09:31:46.248Z,1.90
2022-11-24T09:32:46.248Z,2.10
2022-11-24T09:33:46.212Z,2.20
2022-11-24T09:34:46.206Z,2.10
2022-11-24T09:35:46.189Z,1.90
2022-11-24T09:36:46.172Z,2.00
2022-11-24T09:37:46.179Z,1.60
2022-11-24T09:38:46.153Z,2.10
2022-11-24T09:39:46.211Z,2.10
2022-11-24T09:40:46.130Z,2.10
2022-11-24T09:41:46.131Z,2.20
2022-11-24T09:42:52.089Z,2.20
2022-11-24T09:43:47.109Z,2.50
2022-11-24T09:44:46.091Z,2.50
2022-11-24T09:46:47.146Z,2.40
2022-11-24T09:47:46.082Z,2.60
2022-11-24T09:48:46.039Z,2.20
2022-11-24T09:49:50.945Z,2.30
2022-11-24T09:50:47.031Z,2.20
2022-11-24T09:51:46.013Z,2.10
2022-11-24T09:52:46.001Z,2.40
2022-11-24T09:53:46.013Z,2.10
2022-11-24T09:54:45.975Z,2.30
2022-11-24T09:55:46.012Z,1.90
2022-11-24T09:56:45.954Z,1.90
2022-11-24T09:57:45.949Z,2.30
2022-11-24T09:58:45.942Z,2.60
2022-11-24T09:59:45.930Z,2.30
2022-11-24T10:00:45.924Z,1.80
2022-11-24T10:01:46.015Z,2.00
2022-11-24T10:02:45.894Z,2.50
2022-11-24T10:03:45.894Z,2.40
2022-11-24T10:04:46.051Z,2.10
2022-11-24T10:05:45.874Z,2.20
2022-11-24T10:06:45.842Z,2.10
2022-11-24T10:07:45.896Z,2.10
2022-11-24T10:08:45.836Z,2.40
2022-11-24T10:09:45.814Z,2.50
2022-11-24T10:10:45.855Z,2.20
2022-11-24T10:11:45.806Z,2.40
2022-11-24T10:12:45.775Z,2.80
2022-11-24T10:13:45.784Z,1.90
2022-11-24T10:14:45.755Z,2.50
2022-11-24T10:15:45.820Z,2.30
2022-11-24T10:16:45.736Z,2.90
2022-11-24T10:17:45.727Z,2.10
2022-11-24T10:18:45.718Z,2.70
2022-11-24T10:19:45.712Z,2.10
2022-11-24T10:20:45.688Z,2.20
2022-11-24T10:21:45.685Z,2.60
2022-11-24T10:22:45.668Z,2.30
2022-11-24T10:23:45.670Z,2.30
2022-11-24T10:24:45.658Z,2.50
2022-11-24T10:25:45.639Z,2.50
2022-11-24T10:26:45.671Z,2.80
2022-11-24T10:27:45.682Z,2.80
2022-11-24T10:28:45.860Z,2.40
2022-11-24T10:29:45.599Z,2.30
2022-11-24T10:30:45.607Z,2.60
2022-11-24T10:31:45.573Z,2.00
2022-11-24T10:32:45.553Z,2.80
2022-11-24T10:33:45.562Z,2.40
2022-11-24T10:34:45.535Z,2.70
2022-11-24T10:35:45.526Z,2.50
2022-11-24T10:36:45.622Z,2.50
2022-11-24T10:37:45.513Z,2.20
2022-11-24T10:38:45.614Z,2.40
2022-11-24T10:39:45.494Z,2.30
2022-11-24T10:41:00.930Z,2.40
2022-11-24T10:41:46.468Z,3.10
2022-11-24T10:42:45.444Z,2.80
2022-11-24T10:43:45.455Z,2.60
2022-11-24T10:44:45.450Z,2.90
2022-11-24T10:45:45.416Z,2.40
2022-11-24T10:46:45.561Z,2.70
2022-11-24T10:47:45.405Z,2.70
2022-11-24T10:48:45.423Z,2.20
2022-11-24T10:49:45.368Z,3.20
2022-11-24T10:50:45.463Z,2.60
2022-11-24T10:51:45.357Z,2.50
2022-11-24T10:52:45.350Z,2.60
2022-11-24T10:53:45.354Z,2.70
2022-11-24T10:54:45.352Z,2.40
2022-11-24T10:55:45.312Z,2.50
2022-11-24T10:56:45.294Z,2.80
2022-11-24T10:57:45.291Z,2.30
2022-11-24T10:58:45.285Z,2.90
2022-11-24T10:59:45.262Z,2.50
2022-11-24T11:00:45.256Z,2.50
2022-11-24T11:01:45.288Z,3.10
2022-11-24T11:02:45.385Z,2.30
2022-11-24T11:03:45.224Z,2.70
2022-11-24T11:04:45.245Z,2.50
2022-11-24T11:05:45.233Z,2.90
2022-11-24T11:06:45.189Z,3.10
2022-11-24T11:07:45.213Z,2.90
2022-11-24T11:08:45.176Z,2.50
2022-11-24T11:09:45.158Z,2.80
2022-11-24T11:10:45.190Z,2.50
2022-11-24T11:11:45.130Z,2.90
2022-11-24T11:12:45.406Z,2.60
2022-11-24T11:13:45.119Z,2.30
2022-11-24T11:14:45.106Z,3.00
2022-11-24T11:15:45.125Z,2.70
2022-11-24T11:16:45.100Z,2.60
2022-11-24T11:17:45.069Z,2.50
2022-11-24T11:18:45.062Z,2.60
2022-11-24T11:19:49.762Z,2.40
2022-11-24T11:20:46.039Z,2.70
2022-11-24T11:21:45.023Z,2.50
2022-11-24T11:22:45.023Z,3.10
2022-11-24T11:23:45.011Z,2.90
2022-11-24T11:24:44.993Z,3.20
2022-11-24T11:25:44.983Z,2.90
2022-11-24T11:26:44.993Z,2.30
2022-11-24T11:27:44.962Z,2.20
2022-11-24T11:28:44.973Z,2.80
2022-11-24T11:34:02.743Z,2.50
2022-11-24T11:34:03.310Z,3.00
2022-11-24T11:34:45.889Z,2.70
2022-11-24T11:35:44.880Z,2.40
2022-11-24T11:36:44.942Z,2.40
2022-11-24T11:37:44.849Z,3.00
2022-11-24T11:38:44.851Z,3.10
2022-11-24T11:39:48.609Z,3.20
2022-11-24T11:40:44.823Z,2.70
2022-11-24T11:41:44.811Z,2.90
2022-11-24T11:43:45.870Z,2.50
2022-11-24T11:44:44.953Z,2.50
2022-11-24T11:45:44.780Z,2.40
2022-11-24T11:46:44.771Z,3.00
2022-11-24T11:47:44.735Z,3.00
2022-11-24T11:48:44.759Z,2.50
2022-11-24T11:49:44.723Z,2.60
2022-11-24T11:51:07.025Z,2.80
2022-11-24T11:51:45.756Z,2.70
2022-11-24T11:52:44.686Z,2.50
2022-11-24T11:53:44.697Z,2.60
2022-11-24T11:54:44.658Z,2.40
2022-11-24T11:55:49.663Z,2.40
2022-11-24T11:56:45.641Z,2.40
2022-11-24T11:57:44.630Z,2.50
2022-11-24T11:58:44.621Z,2.60
2022-11-24T11:59:44.624Z,2.70
2022-11-24T12:00:44.599Z,2.10
2022-11-24T12:01:44.589Z,2.30
2022-11-24T12:02:49.928Z,2.00
2022-11-24T12:03:45.686Z,2.70
2022-11-24T12:04:44.557Z,2.40
2022-11-24T12:05:44.542Z,3.10
2022-11-24T12:06:44.532Z,2.30
2022-11-24T12:07:44.585Z,2.70
2022-11-24T12:09:17.932Z,2.40
2022-11-24T12:09:45.535Z,2.40
2022-11-24T12:10:44.494Z,2.40
2022-11-24T12:11:44.473Z,2.30
2022-11-24T12:12:44.466Z,2.30
2022-11-24T12:13:44.468Z,2.40
2022-11-24T12:14:44.466Z,3.10
2022-11-24T12:15:44.476Z,2.80
2022-11-24T12:16:44.444Z,2.50
2022-11-24T12:17:44.407Z,2.40
2022-11-24T12:18:59.724Z,1.90
2022-11-24T12:19:45.400Z,2.70
2022-11-24T12:20:44.388Z,3.10
2022-11-24T12:21:44.369Z,4.20
2022-11-24T12:22:44.417Z,2.50
2022-11-24T12:23:44.352Z,2.90
2022-11-24T12:24:44.408Z,2.60
2022-11-24T12:25:44.321Z,3.30
2022-11-24T12:26:44.320Z,2.30
2022-11-24T12:27:44.300Z,2.80
2022-11-24T12:28:44.303Z,3.40
2022-11-24T12:29:44.292Z,2.70
2022-11-24T12:30:44.272Z,3.40
2022-11-24T12:31:44.306Z,2.60
2022-11-24T12:32:44.256Z,2.80
2022-11-24T12:33:49.240Z,2.50
2022-11-24T12:34:45.242Z,2.40
2022-11-24T12:35:44.229Z,2.80
2022-11-24T12:36:44.207Z,2.80
2022-11-24T12:37:44.198Z,2.50
2022-11-24T12:38:44.186Z,2.50
2022-11-24T12:39:44.177Z,2.30
2022-11-24T12:40:47.166Z,2.60
2022-11-24T12:41:44.160Z,2.80
2022-11-24T12:42:44.139Z,2.50
2022-11-24T12:43:44.129Z,2.20
2022-11-24T12:44:44.139Z,2.70
2022-11-24T12:45:44.112Z,2.80
2022-11-24T12:46:44.127Z,2.50
2022-11-24T12:47:44.082Z,2.40
2022-11-24T12:48:44.072Z,2.50
2022-11-24T12:49:44.080Z,2.50
2022-11-24T12:50:44.063Z,2.40
2022-11-24T12:51:44.053Z,2.40
2022-11-24T12:52:44.032Z,2.50
2022-11-24T12:53:44.023Z,2.50
2022-11-24T12:54:44.025Z,2.50
2022-11-24T12:55:43.998Z,2.60
2022-11-24T12:56:44.031Z,2.70
2022-11-24T12:57:43.983Z,2.80
2022-11-24T12:58:43.977Z,2.60
2022-11-24T12:59:43.966Z,2.80
2022-11-24T13:00:43.947Z,2.30
2022-11-24T13:01:44.019Z,2.70
2022-11-24T13:02:43.981Z,2.80
2022-11-24T13:03:43.909Z,2.40
2022-11-24T13:04:43.918Z,2.70
2022-11-24T13:05:43.888Z,2.80
2022-11-24T13:06:49.066Z,2.70
2022-11-24T13:07:45.031Z,2.70
2022-11-24T13:08:43.862Z,2.50
2022-11-24T13:09:43.878Z,2.40
2022-11-24T13:10:59.083Z,2.70
2022-11-24T13:11:44.830Z,2.70
2022-11-24T13:12:43.813Z,3.10
2022-11-24T13:13:43.804Z,2.40
2022-11-24T13:14:43.811Z,2.40
2022-11-24T13:15:45.990Z,2.90
2022-11-24T13:16:59.472Z,3.20
2022-11-24T13:18:05.112Z,2.30
2022-11-24T13:18:44.808Z,2.40
2022-11-24T13:19:43.756Z,2.50
2022-11-24T13:20:43.795Z,2.50
2022-11-24T13:21:43.724Z,2.90
2022-11-24T13:22:43.712Z,2.80
2022-11-24T13:23:43.708Z,2.60
2022-11-24T13:24:43.740Z,2.60